sensor_id;sensor_type;location;lat;lon;timestamp;P1;durP1;ratioP1;P2;durP2;ratioP2
75021;SDS011;63583;49.976;20.182;2022-12-24T00:01:29;2.17;;;1.45;;
75021;SDS011;63583;49.976;20.182;2022-12-24T00:03:58;2.38;;;1.42;;
75021;SDS011;63583;49.976;20.182;2022-12-24T00:06:26;3.65;;;1.38;;
75021;SDS011;63583;49.976;20.182;2022-12-24T00:08:51;3.17;;;1.60;;
75021;SDS011;63583;49.976;20.182;2022-12-24T00:11:18;2.65;;;1.55;;
75021;SDS011;63583;49.976;20.182;2022-12-24T00:13:47;1.92;;;1.38;;
75021;SDS011;63583;49.976;20.182;2022-12-24T00:16:13;8.48;;;2.78;;
75021;SDS011;63583;49.976;20.182;2022-12-24T00:18:39;9.88;;;2.97;;
75021;SDS011;63583;49.976;20.182;2022-12-24T00:21:06;5.38;;;2.95;;
75021;SDS011;63583;49.976;20.182;2022-12-24T00:23:32;2.67;;;1.30;;
75021;SDS011;63583;49.976;20.182;2022-12-24T00:25:58;1.85;;;1.08;;
75021;SDS011;63583;49.976;20.182;2022-12-24T00:28:23;3.47;;;1.40;;
75021;SDS011;63583;49.976;20.182;2022-12-24T00:30:49;2.22;;;1.45;;
75021;SDS011;63583;49.976;20.182;2022-12-24T00:33:15;1.67;;;1.40;;
75021;SDS011;63583;49.976;20.182;2022-12-24T00:35:43;2.75;;;1.38;;
75021;SDS011;63583;49.976;20.182;2022-12-24T00:38:09;3.28;;;1.55;;
75021;SDS011;63583;49.976;20.182;2022-12-24T00:40:35;2.70;;;1.58;;
75021;SDS011;63583;49.976;20.182;2022-12-24T00:43:00;2.50;;;1.23;;
75021;SDS011;63583;49.976;20.182;2022-12-24T00:45:26;2.90;;;1.58;;
75021;SDS011;63583;49.976;20.182;2022-12-24T00:47:52;4.22;;;2.47;;
75021;SDS011;63583;49.976;20.182;2022-12-24T00:50:18;3.22;;;1.42;;
75021;SDS011;63583;49.976;20.182;2022-12-24T00:52:44;2.67;;;1.55;;
75021;SDS011;63583;49.976;20.182;2022-12-24T00:55:10;3.63;;;1.48;;
75021;SDS011;63583;49.976;20.182;2022-12-24T00:57:38;5.35;;;1.40;;
75021;SDS011;63583;49.976;20.182;2022-12-24T01:00:04;3.40;;;1.45;;
75021;SDS011;63583;49.976;20.182;2022-12-24T01:02:30;2.35;;;1.25;;
75021;SDS011;63583;49.976;20.182;2022-12-24T01:04:56;2.00;;;1.00;;
75021;SDS011;63583;49.976;20.182;2022-12-24T01:07:39;3.47;;;1.30;;
75021;SDS011;63583;49.976;20.182;2022-12-24T01:10:09;2.70;;;1.08;;
75021;SDS011;63583;49.976;20.182;2022-12-24T01:12:36;2.10;;;1.33;;
75021;SDS011;63583;49.976;20.182;2022-12-24T01:15:03;2.78;;;1.40;;
75021;SDS011;63583;49.976;20.182;2022-12-24T01:17:32;3.15;;;1.00;;
75021;SDS011;63583;49.976;20.182;2022-12-24T01:19:59;3.15;;;1.33;;
75021;SDS011;63583;49.976;20.182;2022-12-24T01:22:25;3.88;;;1.55;;
75021;SDS011;63583;49.976;20.182;2022-12-24T01:24:52;1.42;;;1.05;;
75021;SDS011;63583;49.976;20.182;2022-12-24T01:27:19;2.80;;;1.40;;
75021;SDS011;63583;49.976;20.182;2022-12-24T01:29:45;2.85;;;1.70;;
75021;SDS011;63583;49.976;20.182;2022-12-24T01:32:11;3.33;;;1.40;;
75021;SDS011;63583;49.976;20.182;2022-12-24T01:34:37;2.90;;;1.55;;
75021;SDS011;63583;49.976;20.182;2022-12-24T01:37:02;4.47;;;1.50;;
75021;SDS011;63583;49.976;20.182;2022-12-24T01:39:28;1.60;;;1.50;;
75021;SDS011;63583;49.976;20.182;2022-12-24T01:41:54;2.92;;;1.48;;
75021;SDS011;63583;49.976;20.182;2022-12-24T01:44:41;3.38;;;1.80;;
75021;SDS011;63583;49.976;20.182;2022-12-24T01:49:34;5.13;;;1.88;;
75021;SDS011;63583;49.976;20.182;2022-12-24T01:52:07;5.38;;;1.90;;
75021;SDS011;63583;49.976;20.182;2022-12-24T01:54:39;3.95;;;1.42;;
75021;SDS011;63583;49.976;20.182;2022-12-24T01:59:45;1.73;;;1.48;;
75021;SDS011;63583;49.976;20.182;2022-12-24T02:02:14;1.67;;;1.38;;
75021;SDS011;63583;49.976;20.182;2022-12-24T02:07:29;3.65;;;2.10;;
75021;SDS011;63583;49.976;20.182;2022-12-24T02:09:56;4.65;;;2.10;;
75021;SDS011;63583;49.976;20.182;2022-12-24T02:12:24;4.57;;;2.08;;
75021;SDS011;63583;49.976;20.182;2022-12-24T02:14:52;2.63;;;1.90;;
75021;SDS011;63583;49.976;20.182;2022-12-24T02:17:22;5.85;;;2.38;;
75021;SDS011;63583;49.976;20.182;2022-12-24T02:22:40;3.97;;;1.70;;
75021;SDS011;63583;49.976;20.182;2022-12-24T02:30:47;3.17;;;2.20;;
75021;SDS011;63583;49.976;20.182;2022-12-24T02:35:55;4.97;;;1.30;;
75021;SDS011;63583;49.976;20.182;2022-12-24T02:38:59;4.05;;;1.38;;
75021;SDS011;63583;49.976;20.182;2022-12-24T02:41:29;3.10;;;1.65;;
75021;SDS011;63583;49.976;20.182;2022-12-24T02:44:18;2.88;;;1.70;;
75021;SDS011;63583;49.976;20.182;2022-12-24T02:46:46;3.42;;;1.77;;
75021;SDS011;63583;49.976;20.182;2022-12-24T02:49:13;2.35;;;1.60;;
75021;SDS011;63583;49.976;20.182;2022-12-24T02:51:39;3.75;;;1.60;;
75021;SDS011;63583;49.976;20.182;2022-12-24T02:54:06;3.25;;;1.55;;
75021;SDS011;63583;49.976;20.182;2022-12-24T03:08:14;4.50;;;2.20;;
75021;SDS011;63583;49.976;20.182;2022-12-24T03:13:30;6.03;;;2.08;;
75021;SDS011;63583;49.976;20.182;2022-12-24T03:15:56;3.45;;;2.08;;
75021;SDS011;63583;49.976;20.182;2022-12-24T03:18:24;3.58;;;2.13;;
75021;SDS011;63583;49.976;20.182;2022-12-24T03:21:02;3.50;;;2.28;;
75021;SDS011;63583;49.976;20.182;2022-12-24T03:23:33;5.05;;;2.20;;
75021;SDS011;63583;49.976;20.182;2022-12-24T03:26:00;4.18;;;1.77;;
75021;SDS011;63583;49.976;20.182;2022-12-24T03:28:30;2.28;;;1.60;;
75021;SDS011;63583;49.976;20.182;2022-12-24T03:30:59;5.13;;;2.80;;
75021;SDS011;63583;49.976;20.182;2022-12-24T03:33:27;4.70;;;2.15;;
75021;SDS011;63583;49.976;20.182;2022-12-24T03:35:53;2.90;;;1.77;;
75021;SDS011;63583;49.976;20.182;2022-12-24T03:38:19;3.78;;;2.15;;
75021;SDS011;63583;49.976;20.182;2022-12-24T03:40:45;3.08;;;1.60;;
75021;SDS011;63583;49.976;20.182;2022-12-24T03:43:11;3.40;;;1.27;;
75021;SDS011;63583;49.976;20.182;2022-12-24T03:45:37;4.30;;;2.55;;
75021;SDS011;63583;49.976;20.182;2022-12-24T03:48:03;3.70;;;2.20;;
75021;SDS011;63583;49.976;20.182;2022-12-24T03:50:29;2.80;;;1.80;;
75021;SDS011;63583;49.976;20.182;2022-12-24T03:52:56;5.50;;;2.65;;
75021;SDS011;63583;49.976;20.182;2022-12-24T03:55:21;2.65;;;1.80;;
75021;SDS011;63583;49.976;20.182;2022-12-24T03:57:48;3.50;;;2.00;;
75021;SDS011;63583;49.976;20.182;2022-12-24T04:00:14;3.30;;;1.67;;
75021;SDS011;63583;49.976;20.182;2022-12-24T04:02:40;3.00;;;1.65;;
75021;SDS011;63583;49.976;20.182;2022-12-24T04:05:06;5.28;;;2.10;;
75021;SDS011;63583;49.976;20.182;2022-12-24T04:07:36;3.70;;;1.70;;
75021;SDS011;63583;49.976;20.182;2022-12-24T04:10:03;3.55;;;2.50;;
75021;SDS011;63583;49.976;20.182;2022-12-24T04:12:30;6.82;;;1.65;;
75021;SDS011;63583;49.976;20.182;2022-12-24T04:14:56;9.57;;;2.53;;
75021;SDS011;63583;49.976;20.182;2022-12-24T04:17:22;8.73;;;2.28;;
75021;SDS011;63583;49.976;20.182;2022-12-24T04:19:47;4.63;;;2.25;;
75021;SDS011;63583;49.976;20.182;2022-12-24T04:22:13;5.68;;;2.28;;
75021;SDS011;63583;49.976;20.182;2022-12-24T04:24:39;3.47;;;2.10;;
75021;SDS011;63583;49.976;20.182;2022-12-24T04:27:05;7.15;;;3.22;;
75021;SDS011;63583;49.976;20.182;2022-12-24T04:29:31;2.58;;;1.70;;
75021;SDS011;63583;49.976;20.182;2022-12-24T04:31:57;4.57;;;1.85;;
75021;SDS011;63583;49.976;20.182;2022-12-24T04:34:22;2.22;;;1.50;;
75021;SDS011;63583;49.976;20.182;2022-12-24T04:36:48;2.42;;;1.77;;
75021;SDS011;63583;49.976;20.182;2022-12-24T04:39:14;2.53;;;1.30;;
75021;SDS011;63583;49.976;20.182;2022-12-24T04:41:40;4.53;;;1.48;;
75021;SDS011;63583;49.976;20.182;2022-12-24T04:44:07;2.90;;;1.35;;
75021;SDS011;63583;49.976;20.182;2022-12-24T04:46:34;1.73;;;0.95;;
75021;SDS011;63583;49.976;20.182;2022-12-24T04:49:00;2.78;;;1.38;;
75021;SDS011;63583;49.976;20.182;2022-12-24T04:51:26;2.45;;;1.45;;
75021;SDS011;63583;49.976;20.182;2022-12-24T04:53:53;3.40;;;1.25;;
75021;SDS011;63583;49.976;20.182;2022-12-24T04:56:23;2.25;;;1.27;;
75021;SDS011;63583;49.976;20.182;2022-12-24T04:58:51;2.88;;;1.60;;
75021;SDS011;63583;49.976;20.182;2022-12-24T05:01:18;2.60;;;1.48;;
75021;SDS011;63583;49.976;20.182;2022-12-24T05:03:46;4.70;;;2.08;;
75021;SDS011;63583;49.976;20.182;2022-12-24T05:06:13;3.10;;;1.85;;
75021;SDS011;63583;49.976;20.182;2022-12-24T05:08:45;2.95;;;1.42;;
75021;SDS011;63583;49.976;20.182;2022-12-24T05:11:11;2.47;;;1.65;;
75021;SDS011;63583;49.976;20.182;2022-12-24T05:13:44;4.50;;;2.30;;
75021;SDS011;63583;49.976;20.182;2022-12-24T05:16:10;4.15;;;2.20;;
75021;SDS011;63583;49.976;20.182;2022-12-24T05:18:36;3.05;;;2.08;;
75021;SDS011;63583;49.976;20.182;2022-12-24T05:21:10;3.70;;;2.00;;
75021;SDS011;63583;49.976;20.182;2022-12-24T05:23:40;4.10;;;1.88;;
75021;SDS011;63583;49.976;20.182;2022-12-24T05:26:27;5.35;;;2.83;;
75021;SDS011;63583;49.976;20.182;2022-12-24T05:28:56;2.20;;;1.40;;
75021;SDS011;63583;49.976;20.182;2022-12-24T05:31:25;3.25;;;1.77;;
75021;SDS011;63583;49.976;20.182;2022-12-24T05:33:52;3.17;;;2.05;;
75021;SDS011;63583;49.976;20.182;2022-12-24T05:36:19;2.50;;;1.33;;
75021;SDS011;63583;49.976;20.182;2022-12-24T05:38:46;1.60;;;0.95;;
75021;SDS011;63583;49.976;20.182;2022-12-24T05:41:12;3.17;;;1.77;;
75021;SDS011;63583;49.976;20.182;2022-12-24T05:43:37;3.38;;;2.00;;
75021;SDS011;63583;49.976;20.182;2022-12-24T05:46:05;3.25;;;2.13;;
75021;SDS011;63583;49.976;20.182;2022-12-24T05:48:32;5.65;;;2.53;;
75021;SDS011;63583;49.976;20.182;2022-12-24T05:50:59;4.07;;;2.28;;
75021;SDS011;63583;49.976;20.182;2022-12-24T05:53:27;3.65;;;1.92;;
75021;SDS011;63583;49.976;20.182;2022-12-24T05:55:53;4.07;;;1.85;;
75021;SDS011;63583;49.976;20.182;2022-12-24T05:58:19;3.97;;;2.60;;
75021;SDS011;63583;49.976;20.182;2022-12-24T06:00:45;3.65;;;1.80;;
75021;SDS011;63583;49.976;20.182;2022-12-24T06:03:11;3.33;;;2.08;;
75021;SDS011;63583;49.976;20.182;2022-12-24T06:05:38;2.55;;;1.58;;
75021;SDS011;63583;49.976;20.182;2022-12-24T06:08:05;4.70;;;2.05;;
75021;SDS011;63583;49.976;20.182;2022-12-24T06:10:31;3.65;;;1.85;;
75021;SDS011;63583;49.976;20.182;2022-12-24T06:12:57;1.20;;;0.80;;
75021;SDS011;63583;49.976;20.182;2022-12-24T06:15:23;3.83;;;1.23;;
75021;SDS011;63583;49.976;20.182;2022-12-24T06:17:48;4.18;;;1.83;;
75021;SDS011;63583;49.976;20.182;2022-12-24T06:20:14;0.75;;;0.65;;
75021;SDS011;63583;49.976;20.182;2022-12-24T06:22:40;2.63;;;1.35;;
75021;SDS011;63583;49.976;20.182;2022-12-24T06:25:06;1.27;;;0.82;;
75021;SDS011;63583;49.976;20.182;2022-12-24T06:27:32;2.70;;;1.23;;
75021;SDS011;63583;49.976;20.182;2022-12-24T06:29:58;2.33;;;1.08;;
75021;SDS011;63583;49.976;20.182;2022-12-24T06:32:24;1.80;;;1.17;;
75021;SDS011;63583;49.976;20.182;2022-12-24T06:34:50;2.22;;;1.13;;
75021;SDS011;63583;49.976;20.182;2022-12-24T06:37:15;1.48;;;0.85;;
75021;SDS011;63583;49.976;20.182;2022-12-24T06:39:45;2.15;;;1.00;;
75021;SDS011;63583;49.976;20.182;2022-12-24T06:42:13;2.08;;;0.95;;
75021;SDS011;63583;49.976;20.182;2022-12-24T06:44:39;2.50;;;1.38;;
75021;SDS011;63583;49.976;20.182;2022-12-24T06:47:05;1.42;;;0.80;;
75021;SDS011;63583;49.976;20.182;2022-12-24T06:49:31;2.33;;;1.02;;
75021;SDS011;63583;49.976;20.182;2022-12-24T06:51:56;2.25;;;1.25;;
75021;SDS011;63583;49.976;20.182;2022-12-24T06:54:22;2.40;;;1.65;;
75021;SDS011;63583;49.976;20.182;2022-12-24T06:56:48;4.72;;;1.42;;
75021;SDS011;63583;49.976;20.182;2022-12-24T06:59:14;1.25;;;1.02;;
75021;SDS011;63583;49.976;20.182;2022-12-24T07:01:39;2.17;;;1.48;;
75021;SDS011;63583;49.976;20.182;2022-12-24T07:04:05;2.00;;;1.15;;
75021;SDS011;63583;49.976;20.182;2022-12-24T07:06:31;2.88;;;1.13;;
75021;SDS011;63583;49.976;20.182;2022-12-24T07:08:57;2.20;;;1.20;;
75021;SDS011;63583;49.976;20.182;2022-12-24T07:11:23;2.35;;;1.23;;
75021;SDS011;63583;49.976;20.182;2022-12-24T07:13:50;3.22;;;1.38;;
75021;SDS011;63583;49.976;20.182;2022-12-24T07:16:16;2.40;;;1.35;;
75021;SDS011;63583;49.976;20.182;2022-12-24T07:18:42;2.30;;;1.50;;
75021;SDS011;63583;49.976;20.182;2022-12-24T07:21:08;5.80;;;1.73;;
75021;SDS011;63583;49.976;20.182;2022-12-24T07:23:35;3.10;;;1.60;;
75021;SDS011;63583;49.976;20.182;2022-12-24T07:26:01;4.50;;;1.83;;
75021;SDS011;63583;49.976;20.182;2022-12-24T07:28:29;3.33;;;2.17;;
75021;SDS011;63583;49.976;20.182;2022-12-24T07:30:55;3.35;;;1.63;;
75021;SDS011;63583;49.976;20.182;2022-12-24T07:33:22;2.78;;;1.75;;
75021;SDS011;63583;49.976;20.182;2022-12-24T07:35:48;4.00;;;2.03;;
75021;SDS011;63583;49.976;20.182;2022-12-24T07:38:25;4.38;;;1.98;;
75021;SDS011;63583;49.976;20.182;2022-12-24T07:40:51;2.65;;;1.92;;
75021;SDS011;63583;49.976;20.182;2022-12-24T07:43:17;6.05;;;2.47;;
75021;SDS011;63583;49.976;20.182;2022-12-24T07:45:43;4.70;;;2.72;;
75021;SDS011;63583;49.976;20.182;2022-12-24T07:48:09;3.90;;;2.53;;
75021;SDS011;63583;49.976;20.182;2022-12-24T07:50:34;4.07;;;2.20;;
75021;SDS011;63583;49.976;20.182;2022-12-24T07:53:00;4.55;;;2.70;;
75021;SDS011;63583;49.976;20.182;2022-12-24T07:55:26;3.80;;;3.00;;
75021;SDS011;63583;49.976;20.182;2022-12-24T07:57:52;2.85;;;1.45;;
75021;SDS011;63583;49.976;20.182;2022-12-24T08:00:17;6.05;;;2.03;;
75021;SDS011;63583;49.976;20.182;2022-12-24T08:02:44;2.42;;;1.55;;
75021;SDS011;63583;49.976;20.182;2022-12-24T08:05:10;2.58;;;1.50;;
75021;SDS011;63583;49.976;20.182;2022-12-24T08:07:36;3.97;;;1.92;;
75021;SDS011;63583;49.976;20.182;2022-12-24T08:10:02;2.72;;;1.60;;
75021;SDS011;63583;49.976;20.182;2022-12-24T08:12:28;3.72;;;1.83;;
75021;SDS011;63583;49.976;20.182;2022-12-24T08:14:54;3.83;;;1.52;;
75021;SDS011;63583;49.976;20.182;2022-12-24T08:17:20;4.28;;;1.55;;
75021;SDS011;63583;49.976;20.182;2022-12-24T08:19:45;4.43;;;1.77;;
75021;SDS011;63583;49.976;20.182;2022-12-24T08:22:11;5.25;;;2.00;;
75021;SDS011;63583;49.976;20.182;2022-12-24T08:24:37;4.95;;;2.60;;
75021;SDS011;63583;49.976;20.182;2022-12-24T08:27:03;5.43;;;2.40;;
75021;SDS011;63583;49.976;20.182;2022-12-24T08:29:29;3.50;;;2.08;;
75021;SDS011;63583;49.976;20.182;2022-12-24T08:31:55;5.43;;;2.00;;
75021;SDS011;63583;49.976;20.182;2022-12-24T08:34:20;3.28;;;2.40;;
75021;SDS011;63583;49.976;20.182;2022-12-24T08:36:46;3.22;;;1.92;;
75021;SDS011;63583;49.976;20.182;2022-12-24T08:39:12;3.30;;;1.70;;
75021;SDS011;63583;49.976;20.182;2022-12-24T08:41:38;4.57;;;2.08;;
75021;SDS011;63583;49.976;20.182;2022-12-24T08:44:04;2.25;;;1.13;;
75021;SDS011;63583;49.976;20.182;2022-12-24T08:46:30;4.13;;;1.90;;
75021;SDS011;63583;49.976;20.182;2022-12-24T08:48:55;5.60;;;2.45;;
75021;SDS011;63583;49.976;20.182;2022-12-24T08:51:21;8.55;;;3.92;;
75021;SDS011;63583;49.976;20.182;2022-12-24T08:53:47;10.07;;;3.55;;
75021;SDS011;63583;49.976;20.182;2022-12-24T08:56:13;8.25;;;3.83;;
75021;SDS011;63583;49.976;20.182;2022-12-24T08:58:39;6.45;;;3.75;;
75021;SDS011;63583;49.976;20.182;2022-12-24T09:01:13;3.55;;;1.98;;
75021;SDS011;63583;49.976;20.182;2022-12-24T09:03:40;2.38;;;1.45;;
75021;SDS011;63583;49.976;20.182;2022-12-24T09:06:06;5.63;;;2.88;;
75021;SDS011;63583;49.976;20.182;2022-12-24T09:08:32;2.88;;;2.20;;
75021;SDS011;63583;49.976;20.182;2022-12-24T09:11:06;11.68;;;4.65;;
75021;SDS011;63583;49.976;20.182;2022-12-24T09:15:59;4.82;;;2.10;;
75021;SDS011;63583;49.976;20.182;2022-12-24T09:18:25;4.75;;;2.08;;
75021;SDS011;63583;49.976;20.182;2022-12-24T09:20:57;4.82;;;2.63;;
75021;SDS011;63583;49.976;20.182;2022-12-24T09:23:27;1.98;;;0.98;;
75021;SDS011;63583;49.976;20.182;2022-12-24T09:25:53;2.50;;;1.30;;
75021;SDS011;63583;49.976;20.182;2022-12-24T09:28:19;2.60;;;1.50;;
75021;SDS011;63583;49.976;20.182;2022-12-24T09:30:58;4.07;;;2.13;;
75021;SDS011;63583;49.976;20.182;2022-12-24T09:33:26;3.92;;;1.40;;
75021;SDS011;63583;49.976;20.182;2022-12-24T09:35:54;2.55;;;1.23;;
75021;SDS011;63583;49.976;20.182;2022-12-24T09:38:19;2.22;;;0.80;;
75021;SDS011;63583;49.976;20.182;2022-12-24T09:40:46;2.47;;;1.40;;
75021;SDS011;63583;49.976;20.182;2022-12-24T09:43:16;4.80;;;2.00;;
75021;SDS011;63583;49.976;20.182;2022-12-24T09:48:29;1.90;;;1.15;;
75021;SDS011;63583;49.976;20.182;2022-12-24T09:56:34;4.15;;;1.20;;
75021;SDS011;63583;49.976;20.182;2022-12-24T09:59:05;4.10;;;1.13;;
75021;SDS011;63583;49.976;20.182;2022-12-24T10:01:35;1.58;;;1.27;;
75021;SDS011;63583;49.976;20.182;2022-12-24T10:04:20;2.45;;;1.30;;
75021;SDS011;63583;49.976;20.182;2022-12-24T10:06:54;3.65;;;2.42;;
75021;SDS011;63583;49.976;20.182;2022-12-24T10:09:48;3.53;;;1.90;;
75021;SDS011;63583;49.976;20.182;2022-12-24T10:15:33;5.75;;;3.00;;
75021;SDS011;63583;49.976;20.182;2022-12-24T10:24:13;1.90;;;1.10;;
75021;SDS011;63583;49.976;20.182;2022-12-24T10:26:49;3.50;;;1.75;;
75021;SDS011;63583;49.976;20.182;2022-12-24T10:29:28;3.35;;;1.60;;
75021;SDS011;63583;49.976;20.182;2022-12-24T10:34:43;3.33;;;1.85;;
75021;SDS011;63583;49.976;20.182;2022-12-24T10:37:23;1.15;;;0.85;;
75021;SDS011;63583;49.976;20.182;2022-12-24T10:39:51;3.95;;;1.27;;
75021;SDS011;63583;49.976;20.182;2022-12-24T10:42:17;1.63;;;0.95;;
75021;SDS011;63583;49.976;20.182;2022-12-24T10:44:46;3.25;;;1.45;;
75021;SDS011;63583;49.976;20.182;2022-12-24T10:47:17;3.75;;;1.40;;
75021;SDS011;63583;49.976;20.182;2022-12-24T10:49:48;2.03;;;0.95;;
75021;SDS011;63583;49.976;20.182;2022-12-24T10:52:26;3.28;;;0.85;;
75021;SDS011;63583;49.976;20.182;2022-12-24T10:55:41;4.57;;;1.38;;
75021;SDS011;63583;49.976;20.182;2022-12-24T10:57:41;3.03;;;1.45;;
75021;SDS011;63583;49.976;20.182;2022-12-24T11:00:17;1.95;;;1.15;;
75021;SDS011;63583;49.976;20.182;2022-12-24T11:02:47;2.78;;;1.50;;
75021;SDS011;63583;49.976;20.182;2022-12-24T11:05:28;3.10;;;0.95;;
75021;SDS011;63583;49.976;20.182;2022-12-24T11:08:00;2.72;;;1.27;;
75021;SDS011;63583;49.976;20.182;2022-12-24T11:10:26;3.00;;;1.20;;
75021;SDS011;63583;49.976;20.182;2022-12-24T11:12:52;5.30;;;1.48;;
75021;SDS011;63583;49.976;20.182;2022-12-24T11:15:21;3.63;;;1.55;;
75021;SDS011;63583;49.976;20.182;2022-12-24T11:20:31;4.07;;;1.58;;
75021;SDS011;63583;49.976;20.182;2022-12-24T11:22:59;3.42;;;1.27;;
75021;SDS011;63583;49.976;20.182;2022-12-24T11:25:32;2.17;;;1.17;;
75021;SDS011;63583;49.976;20.182;2022-12-24T11:28:21;4.70;;;1.40;;
75021;SDS011;63583;49.976;20.182;2022-12-24T11:33:21;2.55;;;1.55;;
75021;SDS011;63583;49.976;20.182;2022-12-24T11:35:49;2.95;;;1.48;;
75021;SDS011;63583;49.976;20.182;2022-12-24T11:38:19;3.90;;;1.50;;
75021;SDS011;63583;49.976;20.182;2022-12-24T11:41:00;2.58;;;1.30;;
75021;SDS011;63583;49.976;20.182;2022-12-24T11:44:02;2.50;;;1.52;;
75021;SDS011;63583;49.976;20.182;2022-12-24T11:49:13;3.25;;;1.35;;
75021;SDS011;63583;49.976;20.182;2022-12-24T11:52:27;2.17;;;1.23;;
75021;SDS011;63583;49.976;20.182;2022-12-24T11:54:35;4.72;;;2.13;;
75021;SDS011;63583;49.976;20.182;2022-12-24T11:57:10;2.00;;;1.25;;
75021;SDS011;63583;49.976;20.182;2022-12-24T11:59:43;2.30;;;1.80;;
75021;SDS011;63583;49.976;20.182;2022-12-24T12:02:22;2.42;;;1.65;;
75021;SDS011;63583;49.976;20.182;2022-12-24T12:04:53;3.00;;;1.48;;
75021;SDS011;63583;49.976;20.182;2022-12-24T12:07:29;3.97;;;1.75;;
75021;SDS011;63583;49.976;20.182;2022-12-24T12:09:59;3.35;;;1.80;;
75021;SDS011;63583;49.976;20.182;2022-12-24T12:12:31;2.65;;;1.60;;
75021;SDS011;63583;49.976;20.182;2022-12-24T12:15:05;5.63;;;2.70;;
75021;SDS011;63583;49.976;20.182;2022-12-24T12:18:02;2.53;;;1.60;;
75021;SDS011;63583;49.976;20.182;2022-12-24T12:21:19;1.95;;;1.42;;
75021;SDS011;63583;49.976;20.182;2022-12-24T12:23:50;2.55;;;1.80;;
75021;SDS011;63583;49.976;20.182;2022-12-24T12:26:26;11.27;;;3.00;;
75021;SDS011;63583;49.976;20.182;2022-12-24T12:28:55;5.07;;;2.65;;
75021;SDS011;63583;49.976;20.182;2022-12-24T12:31:29;5.15;;;2.97;;
75021;SDS011;63583;49.976;20.182;2022-12-24T12:34:04;5.20;;;2.60;;
75021;SDS011;63583;49.976;20.182;2022-12-24T12:36:38;5.05;;;2.05;;
75021;SDS011;63583;49.976;20.182;2022-12-24T12:39:11;9.30;;;3.72;;
75021;SDS011;63583;49.976;20.182;2022-12-24T12:42:01;4.88;;;1.88;;
75021;SDS011;63583;49.976;20.182;2022-12-24T12:50:28;3.50;;;1.83;;
75021;SDS011;63583;49.976;20.182;2022-12-24T12:55:54;3.90;;;1.60;;
75021;SDS011;63583;49.976;20.182;2022-12-24T13:17:07;3.40;;;1.85;;
75021;SDS011;63583;49.976;20.182;2022-12-24T13:22:26;2.78;;;1.83;;
75021;SDS011;63583;49.976;20.182;2022-12-24T13:24:52;4.65;;;2.55;;
75021;SDS011;63583;49.976;20.182;2022-12-24T13:30:00;4.82;;;2.47;;
75021;SDS011;63583;49.976;20.182;2022-12-24T13:32:46;3.60;;;2.08;;
75021;SDS011;63583;49.976;20.182;2022-12-24T13:35:25;8.15;;;3.53;;
75021;SDS011;63583;49.976;20.182;2022-12-24T13:37:52;4.78;;;1.98;;
75021;SDS011;63583;49.976;20.182;2022-12-24T13:40:22;3.83;;;2.63;;
75021;SDS011;63583;49.976;20.182;2022-12-24T13:47:53;5.47;;;2.05;;
75021;SDS011;63583;49.976;20.182;2022-12-24T13:50:22;6.43;;;3.60;;
75021;SDS011;63583;49.976;20.182;2022-12-24T13:58:26;5.80;;;2.92;;
75021;SDS011;63583;49.976;20.182;2022-12-24T14:00:56;7.57;;;3.17;;
75021;SDS011;63583;49.976;20.182;2022-12-24T14:03:44;6.22;;;3.58;;
75021;SDS011;63583;49.976;20.182;2022-12-24T14:06:21;4.85;;;2.40;;
75021;SDS011;63583;49.976;20.182;2022-12-24T14:08:49;11.45;;;4.05;;
75021;SDS011;63583;49.976;20.182;2022-12-24T14:11:23;6.28;;;4.22;;
75021;SDS011;63583;49.976;20.182;2022-12-24T14:16:21;9.27;;;4.32;;
75021;SDS011;63583;49.976;20.182;2022-12-24T14:24:34;14.25;;;4.07;;
75021;SDS011;63583;49.976;20.182;2022-12-24T14:27:17;8.73;;;4.30;;
75021;SDS011;63583;49.976;20.182;2022-12-24T14:29:49;12.55;;;4.65;;
75021;SDS011;63583;49.976;20.182;2022-12-24T14:32:35;5.70;;;3.15;;
75021;SDS011;63583;49.976;20.182;2022-12-24T14:35:25;8.20;;;4.50;;
75021;SDS011;63583;49.976;20.182;2022-12-24T14:40:33;4.72;;;2.70;;
75021;SDS011;63583;49.976;20.182;2022-12-24T14:43:13;7.43;;;4.10;;
75021;SDS011;63583;49.976;20.182;2022-12-24T14:45:50;7.95;;;3.15;;
75021;SDS011;63583;49.976;20.182;2022-12-24T14:48:25;6.00;;;3.25;;
75021;SDS011;63583;49.976;20.182;2022-12-24T14:56:17;6.80;;;3.65;;
75021;SDS011;63583;49.976;20.182;2022-12-24T14:58:45;6.05;;;3.50;;
75021;SDS011;63583;49.976;20.182;2022-12-24T15:01:28;4.57;;;3.50;;
75021;SDS011;63583;49.976;20.182;2022-12-24T15:06:36;8.20;;;3.97;;
75021;SDS011;63583;49.976;20.182;2022-12-24T15:09:04;8.60;;;3.92;;
75021;SDS011;63583;49.976;20.182;2022-12-24T15:11:38;4.03;;;2.35;;
75021;SDS011;63583;49.976;20.182;2022-12-24T15:14:08;9.63;;;5.45;;
75021;SDS011;63583;49.976;20.182;2022-12-24T15:16:35;7.93;;;4.53;;
75021;SDS011;63583;49.976;20.182;2022-12-24T15:19:03;14.48;;;4.80;;
75021;SDS011;63583;49.976;20.182;2022-12-24T15:21:37;9.70;;;5.05;;
75021;SDS011;63583;49.976;20.182;2022-12-24T15:24:23;11.02;;;3.35;;
75021;SDS011;63583;49.976;20.182;2022-12-24T15:27:11;5.97;;;3.92;;
75021;SDS011;63583;49.976;20.182;2022-12-24T15:29:41;8.13;;;3.50;;
75021;SDS011;63583;49.976;20.182;2022-12-24T15:32:14;8.00;;;3.85;;
75021;SDS011;63583;49.976;20.182;2022-12-24T15:34:42;6.88;;;4.32;;
75021;SDS011;63583;49.976;20.182;2022-12-24T15:39:54;8.65;;;3.67;;
75021;SDS011;63583;49.976;20.182;2022-12-24T15:42:22;5.30;;;3.03;;
75021;SDS011;63583;49.976;20.182;2022-12-24T15:47:28;7.03;;;4.57;;
75021;SDS011;63583;49.976;20.182;2022-12-24T15:52:46;8.55;;;3.75;;
75021;SDS011;63583;49.976;20.182;2022-12-24T15:57:56;7.57;;;4.13;;
75021;SDS011;63583;49.976;20.182;2022-12-24T16:00:24;7.72;;;4.32;;
75021;SDS011;63583;49.976;20.182;2022-12-24T16:03:15;6.32;;;3.53;;
75021;SDS011;63583;49.976;20.182;2022-12-24T16:05:43;10.20;;;4.18;;
75021;SDS011;63583;49.976;20.182;2022-12-24T16:10:42;8.57;;;3.88;;
75021;SDS011;63583;49.976;20.182;2022-12-24T16:13:14;9.48;;;4.03;;
75021;SDS011;63583;49.976;20.182;2022-12-24T16:15:48;6.93;;;4.03;;
75021;SDS011;63583;49.976;20.182;2022-12-24T16:18:19;7.95;;;4.03;;
75021;SDS011;63583;49.976;20.182;2022-12-24T16:20:49;6.78;;;3.10;;
75021;SDS011;63583;49.976;20.182;2022-12-24T16:23:20;10.48;;;3.85;;
75021;SDS011;63583;49.976;20.182;2022-12-24T16:25:52;5.57;;;3.25;;
75021;SDS011;63583;49.976;20.182;2022-12-24T16:28:18;8.07;;;4.63;;
75021;SDS011;63583;49.976;20.182;2022-12-24T16:30:45;6.90;;;3.42;;
75021;SDS011;63583;49.976;20.182;2022-12-24T16:33:15;5.55;;;2.63;;
75021;SDS011;63583;49.976;20.182;2022-12-24T16:35:43;5.95;;;3.15;;
75021;SDS011;63583;49.976;20.182;2022-12-24T16:38:10;5.57;;;3.45;;
75021;SDS011;63583;49.976;20.182;2022-12-24T16:40:39;8.90;;;4.10;;
75021;SDS011;63583;49.976;20.182;2022-12-24T16:43:05;10.75;;;3.65;;
75021;SDS011;63583;49.976;20.182;2022-12-24T16:45:50;5.97;;;3.13;;
75021;SDS011;63583;49.976;20.182;2022-12-24T16:48:18;7.43;;;5.03;;
75021;SDS011;63583;49.976;20.182;2022-12-24T16:50:46;11.73;;;5.45;;
75021;SDS011;63583;49.976;20.182;2022-12-24T16:53:14;9.68;;;4.03;;
75021;SDS011;63583;49.976;20.182;2022-12-24T16:55:41;8.75;;;5.38;;
75021;SDS011;63583;49.976;20.182;2022-12-24T16:58:09;7.35;;;3.70;;
75021;SDS011;63583;49.976;20.182;2022-12-24T17:00:39;12.65;;;4.90;;
75021;SDS011;63583;49.976;20.182;2022-12-24T17:03:05;9.00;;;3.35;;
75021;SDS011;63583;49.976;20.182;2022-12-24T17:05:32;6.15;;;3.70;;
75021;SDS011;63583;49.976;20.182;2022-12-24T17:07:59;7.65;;;3.28;;